Time;durP1;ratioP1;P1;durP2;ratioP2;P2;SDS_P1;SDS_P2;PMS_P1;PMS_P2;Temp;Humidity;BMP_temperature;BMP_pressure;BME280_temperature;BME280_humidity;BME280_pressure;Samples;Min_cycle;Max_cycle;Signal;HPM_P1;HPM_P2
2020/12/31 00:00:40;;;;;;;5.53;5.03;;;3.60;88.70;;;;;;5086490;28;20272;-88
2020/12/31 00:03:06;;;;;;;5.33;4.83;;;3.70;88.70;;;;;;5087045;28;20207;-88
2020/12/31 00:05:32;;;;;;;6.10;5.60;;;3.70;89.00;;;;;;5087858;28;20186;-88
2020/12/31 00:07:57;;;;;;;5.13;4.63;;;3.70;88.70;;;;;;5069623;28;20349;-89
2020/12/31 00:10:23;;;;;;;4.93;4.43;;;3.80;88.90;;;;;;5088035;28;20195;-88
2020/12/31 00:12:49;;;;;;;6.23;5.63;;;3.80;89.40;;;;;;5086142;28;20221;-89
2020/12/31 00:15:15;;;;;;;5.27;4.77;;;3.80;88.20;;;;;;5086363;28;20210;-89
2020/12/31 00:17:41;;;;;;;5.27;4.77;;;3.80;88.10;;;;;;5087865;28;20182;-88
2020/12/31 00:20:08;;;;;;;6.13;4.93;;;3.90;88.20;;;;;;5089090;28;20711;-88
2020/12/31 00:22:34;;;;;;;5.53;5.00;;;3.80;87.20;;;;;;5088991;28;20218;-89
2020/12/31 00:24:59;;;;;;;5.57;5.07;;;3.80;87.50;;;;;;5089733;28;20179;-89
2020/12/31 00:27:25;;;;;;;5.60;5.03;;;3.70;88.30;;;;;;5090007;28;20239;-89
2020/12/31 00:29:51;;;;;;;5.60;5.10;;;3.70;88.80;;;;;;5108680;28;20603;-89
2020/12/31 00:32:17;;;;;;;6.50;5.13;;;3.60;88.10;;;;;;5108941;28;20183;-88
2020/12/31 00:34:42;;;;;;;6.00;5.40;;;3.60;89.40;;;;;;5107708;28;20615;-89
2020/12/31 00:37:09;;;;;;;5.73;5.23;;;3.60;89.00;;;;;;5108656;28;20242;-88
2020/12/31 00:39:34;;;;;;;5.83;5.33;;;3.60;90.30;;;;;;5108726;28;20224;-89
2020/12/31 00:42:00;;;;;;;7.50;5.57;;;3.50;89.20;;;;;;5106013;28;20202;-89
2020/12/31 00:44:26;;;;;;;6.70;5.93;;;3.50;89.20;;;;;;5087190;28;20172;-89
2020/12/31 00:46:51;;;;;;;6.40;5.60;;;3.50;89.90;;;;;;5087154;28;20203;-89
2020/12/31 00:49:17;;;;;;;6.90;6.20;;;3.60;90.00;;;;;;5086108;28;20286;-89
2020/12/31 00:51:43;;;;;;;6.10;5.50;;;3.60;89.70;;;;;;5087533;28;20227;-88
2020/12/31 00:54:09;;;;;;;6.20;5.60;;;3.50;90.20;;;;;;5088160;28;20192;-88
2020/12/31 00:56:34;;;;;;;6.03;5.50;;;3.50;90.30;;;;;;5086654;28;20179;-89
2020/12/31 00:59:00;;;;;;;6.20;5.60;;;3.50;90.90;;;;;;5070135;28;20200;-89
2020/12/31 01:01:25;;;;;;;5.80;5.30;;;3.50;90.70;;;;;;5086709;28;20183;-88
2020/12/31 01:03:51;;;;;;;6.83;5.60;;;3.50;88.90;;;;;;5088854;28;20278;-88
2020/12/31 01:06:17;;;;;;;6.50;5.87;;;3.50;90.30;;;;;;5087715;28;20276;-89
2020/12/31 01:08:42;;;;;;;5.40;4.90;;;3.60;89.80;;;;;;5087922;28;20227;-89
2020/12/31 01:11:08;;;;;;;5.57;5.07;;;3.50;89.80;;;;;;5086709;28;20183;-89
2020/12/31 01:13:34;;;;;;;5.20;4.70;;;3.60;90.20;;;;;;5087241;28;20179;-89
2020/12/31 01:16:00;;;;;;;5.27;4.67;;;3.60;90.10;;;;;;5087575;28;20693;-88
2020/12/31 01:18:25;;;;;;;5.03;4.53;;;3.60;89.00;;;;;;5087003;28;20199;-89
2020/12/31 01:20:51;;;;;;;5.10;4.63;;;3.60;89.60;;;;;;5087225;28;20661;-88
2020/12/31 01:23:17;;;;;;;5.60;5.00;;;3.60;89.60;;;;;;5087109;28;20203;-88
2020/12/31 01:25:42;;;;;;;5.63;5.10;;;3.60;89.40;;;;;;5086151;28;20262;-88
2020/12/31 01:28:08;;;;;;;6.03;5.43;;;3.60;89.50;;;;;;5077495;28;20203;-89
2020/12/31 01:30:34;;;;;;;6.20;5.60;;;3.60;87.90;;;;;;5098908;28;20187;-88
2020/12/31 01:33:00;;;;;;;5.73;4.80;;;3.50;87.70;;;;;;5087632;28;20262;-88
2020/12/31 01:35:26;;;;;;;4.97;4.57;;;3.50;88.50;;;;;;5087702;28;20243;-89
2020/12/31 01:37:51;;;;;;;5.60;5.10;;;3.40;88.10;;;;;;5087088;28;20650;-88
2020/12/31 01:40:17;;;;;;;6.20;5.60;;;3.20;87.90;;;;;;5086396;28;20230;-88
2020/12/31 01:42:43;;;;;;;5.37;4.83;;;3.10;89.10;;;;;;5086949;28;20219;-88
2020/12/31 01:45:09;;;;;;;5.80;5.20;;;3.20;89.60;;;;;;5085796;28;20190;-89
2020/12/31 01:47:36;;;;;;;6.30;5.67;;;3.00;89.00;;;;;;5086576;28;20223;-89
2020/12/31 01:50:03;;;;;;;5.33;4.83;;;2.80;89.70;;;;;;5085698;28;20207;-89
2020/12/31 01:52:31;;;;;;;6.47;5.50;;;2.70;90.10;;;;;;5086296;28;20231;-88
2020/12/31 01:54:59;;;;;;;6.10;5.50;;;2.70;89.90;;;;;;5086171;28;20183;-88
2020/12/31 01:57:25;;;;;;;5.90;5.37;;;2.60;90.30;;;;;;5085661;28;20192;-88
2020/12/31 01:59:50;;;;;;;6.13;5.53;;;2.60;90.50;;;;;;5086817;28;20202;-88
2020/12/31 02:02:16;;;;;;;7.10;6.40;;;2.60;89.60;;;;;;5086603;28;20547;-88
2020/12/31 02:04:42;;;;;;;8.10;6.93;;;2.50;90.30;;;;;;5085412;28;20179;-88
2020/12/31 02:07:08;;;;;;;6.10;5.50;;;2.50;90.50;;;;;;5084912;28;20186;-89
2020/12/31 02:09:35;;;;;;;6.10;5.47;;;2.50;90.30;;;;;;5086287;28;20279;-89
2020/12/31 02:12:04;;;;;;;5.70;5.20;;;2.40;90.20;;;;;;5085834;28;20184;-88
2020/12/31 02:14:31;;;;;;;6.10;5.03;;;2.40;90.60;;;;;;5085167;28;20187;-88
2020/12/31 02:16:58;;;;;;;5.87;5.27;;;2.40;90.40;;;;;;5085251;28;20192;-88
2020/12/31 02:19:24;;;;;;;5.70;5.10;;;2.40;90.20;;;;;;5085322;28;20203;-88
2020/12/31 02:21:53;;;;;;;5.33;4.70;;;2.40;90.40;;;;;;5085073;28;20199;-88
2020/12/31 02:24:19;;;;;;;5.30;4.60;;;2.40;90.30;;;;;;5085977;28;20643;-89
2020/12/31 02:26:47;;;;;;;6.00;5.37;;;2.40;90.80;;;;;;5086558;28;20183;-89
2020/12/31 02:29:14;;;;;;;5.40;4.90;;;2.40;89.80;;;;;;5086145;28;20204;-88
2020/12/31 02:31:41;;;;;;;5.60;5.07;;;2.40;90.30;;;;;;5085295;28;20601;-88
2020/12/31 02:34:08;;;;;;;8.60;5.30;;;2.30;90.00;;;;;;5086121;28;20186;-89
2020/12/31 02:36:37;;;;;;;5.67;5.03;;;2.30;90.80;;;;;;5084639;28;20194;-89
2020/12/31 02:39:06;;;;;;;5.83;4.90;;;2.30;90.40;;;;;;5068428;28;20650;-88
2020/12/31 02:41:32;;;;;;;6.73;5.17;;;2.30;89.70;;;;;;5085941;28;20244;-89
2020/12/31 02:43:59;;;;;;;6.63;5.20;;;2.30;89.40;;;;;;5086310;28;20272;-89
2020/12/31 02:46:24;;;;;;;5.50;5.00;;;2.30;89.60;;;;;;5085706;28;20180;-89
2020/12/31 02:48:51;;;;;;;6.73;5.70;;;2.30;90.00;;;;;;5086004;28;20233;-88
2020/12/31 02:51:18;;;;;;;5.20;4.70;;;2.20;91.00;;;;;;5085001;28;20180;-88
2020/12/31 02:53:44;;;;;;;6.37;5.63;;;2.20;90.00;;;;;;5084363;28;20190;-89
2020/12/31 02:56:16;;;;;;;5.33;4.83;;;2.30;90.10;;;;;;5086001;28;20191;-88
2020/12/31 02:58:43;;;;;;;5.77;4.40;;;2.40;90.30;;;;;;5084892;28;20207;-89
2020/12/31 03:01:08;;;;;;;5.17;4.40;;;2.50;91.10;;;;;;5084781;28;20191;-88
2020/12/31 03:03:35;;;;;;;6.13;4.90;;;2.50;88.60;;;;;;5086130;28;20249;-88
2020/12/31 03:06:02;;;;;;;5.33;4.33;;;2.60;88.80;;;;;;5085609;28;20176;-88
2020/12/31 03:08:28;;;;;;;5.20;4.00;;;2.60;88.90;;;;;;5085507;28;20219;-90
2020/12/31 03:10:54;;;;;;;5.10;4.30;;;2.50;87.80;;;;;;5087227;28;20206;-89
2020/12/31 03:13:29;;;;;;;6.00;4.47;;;2.50;87.10;;;;;;5086125;28;20203;-88
2020/12/31 03:15:56;;;;;;;5.67;4.30;;;2.40;87.00;;;;;;5084798;28;20172;-88
2020/12/31 03:18:22;;;;;;;5.63;3.80;;;2.40;87.30;;;;;;5085322;28;20294;-89
2020/12/31 03:20:49;;;;;;;6.10;4.80;;;2.30;87.20;;;;;;5083271;28;20198;-89
2020/12/31 03:23:15;;;;;;;5.00;4.53;;;2.20;87.40;;;;;;5081048;28;20235;-88
2020/12/31 03:25:42;;;;;;;5.43;4.00;;;2.30;86.80;;;;;;5079477;28;20245;-89
2020/12/31 03:28:08;;;;;;;4.97;4.37;;;2.30;87.50;;;;;;5081351;28;20203;-88
2020/12/31 03:30:35;;;;;;;4.57;4.17;;;2.40;86.20;;;;;;5079800;28;20218;-88
2020/12/31 03:33:01;;;;;;;5.37;4.53;;;2.30;86.30;;;;;;5080277;28;20183;-89
2020/12/31 03:35:27;;;;;;;4.90;3.77;;;2.30;86.40;;;;;;5080159;28;20203;-89
2020/12/31 03:37:53;;;;;;;5.40;4.27;;;2.30;86.60;;;;;;5079638;28;20253;-89
2020/12/31 03:40:19;;;;;;;4.17;3.77;;;2.20;86.00;;;;;;5079098;28;20180;-88
2020/12/31 03:42:46;;;;;;;5.33;4.37;;;2.30;86.30;;;;;;5080798;28;20231;-88
2020/12/31 03:45:11;;;;;;;4.53;4.13;;;2.20;86.00;;;;;;5081538;28;20191;-88
2020/12/31 03:47:37;;;;;;;4.40;4.00;;;2.20;86.90;;;;;;5079904;28;20179;-88
2020/12/31 03:50:05;;;;;;;4.73;4.23;;;2.10;87.00;;;;;;5081660;28;20188;-88
2020/12/31 03:52:30;;;;;;;4.60;4.10;;;2.10;86.50;;;;;;5080242;28;20191;-89
2020/12/31 03:54:56;;;;;;;4.43;4.03;;;2.00;87.00;;;;;;5081450;28;20175;-88
2020/12/31 03:57:22;;;;;;;4.40;4.00;;;2.00;87.50;;;;;;5080191;28;20262;-88
2020/12/31 03:59:48;;;;;;;4.77;4.00;;;2.10;86.90;;;;;;5081103;28;20212;-88
2020/12/31 04:02:14;;;;;;;4.03;3.63;;;2.10;86.00;;;;;;5081055;28;20211;-87
2020/12/31 04:04:39;;;;;;;5.10;4.00;;;2.00;86.70;;;;;;5080661;28;20540;-87
2020/12/31 04:07:05;;;;;;;5.40;3.80;;;2.00;86.80;;;;;;5080295;28;20277;-88
2020/12/31 04:09:32;;;;;;;3.87;3.33;;;2.10;86.70;;;;;;5080582;28;20215;-88
2020/12/31 04:11:59;;;;;;;5.30;4.43;;;2.00;87.80;;;;;;5080554;28;20520;-87
2020/12/31 04:14:25;;;;;;;5.97;4.27;;;2.00;87.10;;;;;;5080629;28;20194;-89
2020/12/31 04:16:51;;;;;;;4.13;3.60;;;2.10;88.10;;;;;;5063350;28;20184;-89
2020/12/31 04:19:17;;;;;;;5.23;3.43;;;2.20;87.70;;;;;;5083598;28;20208;-88
2020/12/31 04:21:42;;;;;;;3.63;3.10;;;2.20;87.10;;;;;;5084756;28;20219;-89
2020/12/31 04:24:08;;;;;;;4.60;3.53;;;2.30;86.80;;;;;;5083443;28;20704;-89
2020/12/31 04:26:34;;;;;;;3.80;3.30;;;2.30;86.50;;;;;;5084673;28;20176;-88
2020/12/31 04:28:59;;;;;;;3.67;3.17;;;2.20;86.00;;;;;;5099170;28;20703;-88
2020/12/31 04:31:25;;;;;;;3.63;3.33;;;2.30;85.90;;;;;;5089993;28;20219;-89
2020/12/31 04:33:50;;;;;;;3.70;3.20;;;2.20;85.50;;;;;;5083654;28;20260;-89
2020/12/31 04:36:17;;;;;;;3.77;3.37;;;2.20;85.00;;;;;;5084959;28;20195;-89
2020/12/31 04:38:43;;;;;;;3.63;2.73;;;2.20;86.50;;;;;;5083014;28;20215;-88
2020/12/31 04:41:11;;;;;;;3.63;2.87;;;2.20;86.50;;;;;;5084597;28;20229;-90
2020/12/31 04:43:37;;;;;;;4.40;3.13;;;2.30;85.50;;;;;;5082836;28;20211;-88
2020/12/31 04:46:05;;;;;;;2.73;2.50;;;2.30;86.60;;;;;;5083420;28;20218;-88
2020/12/31 04:48:41;;;;;;;3.73;3.43;;;2.40;87.20;;;;;;5066020;28;20271;-88
2020/12/31 04:51:08;;;;;;;3.27;2.97;;;2.40;86.50;;;;;;5083184;28;20187;-89
2020/12/31 04:53:34;;;;;;;3.40;2.70;;;2.40;85.30;;;;;;5084373;28;20179;-88
2020/12/31 04:56:04;;;;;;;3.03;2.60;;;2.40;85.90;;;;;;5083094;28;20187;-88
2020/12/31 04:58:30;;;;;;;3.03;2.70;;;2.40;86.60;;;;;;5084143;28;20201;-88
2020/12/31 05:00:56;;;;;;;4.20;3.40;;;2.50;86.20;;;;;;5082496;28;20180;-88
2020/12/31 05:03:22;;;;;;;3.50;3.20;;;2.60;85.30;;;;;;5083897;28;20271;-89
2020/12/31 05:05:54;;;;;;;3.50;3.13;;;2.50;85.10;;;;;;5083852;28;20262;-88
2020/12/31 05:08:26;;;;;;;3.00;2.70;;;2.50;86.20;;;;;;5082518;28;20283;-88
2020/12/31 05:10:56;;;;;;;3.30;3.00;;;2.50;86.10;;;;;;5081664;28;20682;-89
2020/12/31 05:13:22;;;;;;;3.27;2.70;;;2.60;86.70;;;;;;5082213;28;20597;-88
2020/12/31 05:15:48;;;;;;;3.17;2.87;;;2.60;86.90;;;;;;5082708;28;20646;-89
2020/12/31 05:18:24;;;;;;;3.13;2.83;;;2.70;86.90;;;;;;5083946;28;20331;-89
2020/12/31 05:20:51;;;;;;;3.17;2.87;;;2.70;86.30;;;;;;5083437;28;20211;-88
2020/12/31 05:23:20;;;;;;;3.93;3.20;;;2.70;85.00;;;;;;5081150;28;20239;-89
2020/12/31 05:25:46;;;;;;;3.60;3.10;;;2.60;83.70;;;;;;5081749;28;20270;-88
2020/12/31 05:28:33;;;;;;;3.40;2.93;;;2.50;84.60;;;;;;5080946;28;20263;-88
2020/12/31 05:31:03;;;;;;;3.33;3.03;;;2.50;86.90;;;;;;5081051;28;20187;-88
2020/12/31 05:33:33;;;;;;;3.40;3.10;;;2.50;85.90;;;;;;5082250;28;20191;-88
2020/12/31 05:36:26;;;;;;;6.27;4.73;;;2.50;86.40;;;;;;5080722;28;20187;-88
2020/12/31 05:38:56;;;;;;;3.80;3.40;;;2.60;86.20;;;;;;5079503;28;20233;-88
2020/12/31 05:41:25;;;;;;;4.33;3.00;;;2.50;86.00;;;;;;5081685;28;20183;-88
2020/12/31 05:44:06;;;;;;;3.70;3.30;;;2.50;86.10;;;;;;5080286;28;20230;-89
2020/12/31 05:46:33;;;;;;;4.30;3.50;;;2.50;85.30;;;;;;5080652;28;20206;-89
2020/12/31 05:49:01;;;;;;;4.30;3.27;;;2.50;86.50;;;;;;5081657;28;20198;-88
2020/12/31 05:51:29;;;;;;;3.50;3.20;;;2.50;86.00;;;;;;5080793;28;20183;-89
2020/12/31 05:54:06;;;;;;;3.50;3.20;;;2.50;86.10;;;;;;5083044;28;20721;-89
2020/12/31 05:56:33;;;;;;;3.43;3.13;;;2.50;86.00;;;;;;5081553;28;20163;-89
2020/12/31 05:59:21;;;;;;;3.43;3.00;;;2.50;85.90;;;;;;5079978;28;20222;-88
2020/12/31 06:01:57;;;;;;;3.67;2.47;;;2.50;85.70;;;;;;5081816;28;20156;-89
2020/12/31 06:04:46;;;;;;;3.33;2.90;;;2.50;85.00;;;;;;5081390;28;20176;-89
2020/12/31 06:07:32;;;;;;;3.73;3.33;;;2.30;84.40;;;;;;5081290;28;20160;-89
2020/12/31 06:10:08;;;;;;;3.37;3.07;;;2.30;85.10;;;;;;5079856;28;20207;-89
2020/12/31 06:12:57;;;;;;;3.20;2.90;;;2.30;85.40;;;;;;5081252;28;20238;-89
2020/12/31 06:15:24;;;;;;;3.03;2.63;;;2.30;86.80;;;;;;5081002;28;20271;-89
2020/12/31 06:17:51;;;;;;;4.83;3.00;;;2.20;85.40;;;;;;5063303;28;20611;-89
2020/12/31 06:20:18;;;;;;;3.50;2.90;;;2.30;86.10;;;;;;5080919;28;20192;-89
2020/12/31 06:23:04;;;;;;;3.43;3.13;;;2.30;86.60;;;;;;5080964;28;20208;-89
2020/12/31 06:25:39;;;;;;;3.10;2.80;;;2.30;86.40;;;;;;5079490;28;20180;-89
2020/12/31 06:28:08;;;;;;;4.13;3.33;;;2.20;87.00;;;;;;5088596;28;20183;-89
2020/12/31 06:30:35;;;;;;;4.53;3.00;;;2.30;86.80;;;;;;5091542;28;20215;-89
2020/12/31 06:33:06;;;;;;;3.70;2.97;;;2.30;86.80;;;;;;5063819;28;20658;-89
2020/12/31 06:35:34;;;;;;;3.30;2.97;;;2.30;87.00;;;;;;5081385;28;20619;-89
2020/12/31 06:37:59;;;;;;;3.00;2.70;;;2.40;86.30;;;;;;5082040;28;20180;-89
2020/12/31 06:40:30;;;;;;;4.47;3.17;;;2.40;85.70;;;;;;5079753;28;20555;-90
2020/12/31 06:43:05;;;;;;;3.90;3.60;;;2.30;86.70;;;;;;5080676;28;20294;-89
2020/12/31 06:45:42;;;;;;;3.00;2.80;;;2.30;86.40;;;;;;5082019;28;20313;-90
2020/12/31 06:48:26;;;;;;;3.53;3.23;;;2.30;86.20;;;;;;5078233;28;20226;-89
2020/12/31 06:51:00;;;;;;;3.53;3.13;;;2.30;87.00;;;;;;5080193;28;20653;-89
2020/12/31 06:53:32;;;;;;;3.67;3.37;;;2.30;86.70;;;;;;5080387;28;20183;-87
2020/12/31 06:56:00;;;;;;;4.30;3.30;;;2.30;86.20;;;;;;5082333;28;20168;-90
2020/12/31 06:58:26;;;;;;;3.50;3.20;;;2.40;86.70;;;;;;5080498;28;20207;-88
2020/12/31 07:00:53;;;;;;;2.90;2.53;;;2.30;84.00;;;;;;5081858;28;20184;-89
2020/12/31 07:03:44;;;;;;;3.40;3.10;;;2.20;85.00;;;;;;5077791;28;21198;-89
2020/12/31 07:06:22;;;;;;;3.90;3.37;;;2.20;85.40;;;;;;5079460;28;20235;-88
2020/12/31 07:08:52;;;;;;;4.57;3.10;;;2.20;85.90;;;;;;5079896;28;20222;-88
2020/12/31 07:11:56;;;;;;;4.00;2.93;;;2.20;85.90;;;;;;5081469;28;20180;-88
2020/12/31 07:14:24;;;;;;;3.60;2.90;;;2.10;84.90;;;;;;5077015;28;20584;-90
2020/12/31 07:17:04;;;;;;;3.87;3.47;;;2.10;86.80;;;;;;5081337;28;20849;-92
2020/12/31 07:19:38;;;;;;;5.33;3.33;;;2.10;87.80;;;;;;5081934;28;20199;-91
2020/12/31 07:22:09;;;;;;;4.10;3.43;;;2.30;88.10;;;;;;5056121;28;20189;-92
2020/12/31 07:25:04;;;;;;;4.63;4.03;;;2.40;87.40;;;;;;5103880;28;20198;-91
2020/12/31 07:27:30;;;;;;;3.30;3.00;;;2.20;85.90;;;;;;5101581;28;20196;-91
2020/12/31 07:30:08;;;;;;;4.17;3.40;;;2.30;87.10;;;;;;5083394;28;20192;-91
2020/12/31 07:33:01;;;;;;;3.80;3.20;;;2.40;86.90;;;;;;5083985;28;20221;-90
2020/12/31 07:35:37;;;;;;;3.63;3.30;;;2.40;87.10;;;;;;5084116;28;20247;-90
2020/12/31 07:38:13;;;;;;;3.27;3.07;;;2.40;87.00;;;;;;5084334;28;20213;-90
2020/12/31 07:40:42;;;;;;;3.50;3.20;;;2.40;85.70;;;;;;5083754;28;20172;-91
2020/12/31 07:43:14;;;;;;;4.00;3.20;;;2.30;85.20;;;;;;5082022;28;20257;-91
2020/12/31 07:45:45;;;;;;;4.47;3.70;;;2.20;85.10;;;;;;5084681;28;20176;-91
2020/12/31 07:48:11;;;;;;;3.47;3.13;;;2.10;86.50;;;;;;5084031;28;20192;-91
2020/12/31 07:50:36;;;;;;;3.20;2.80;;;2.10;87.60;;;;;;5083957;28;20190;-92
2020/12/31 07:53:02;;;;;;;4.57;2.80;;;2.10;87.70;;;;;;5087248;28;20179;-91
2020/12/31 07:55:28;;;;;;;3.90;2.93;;;2.10;88.40;;;;;;5071416;28;20190;-91
2020/12/31 07:57:54;;;;;;;3.60;3.07;;;2.20;87.70;;;;;;5089474;28;20183;-91
2020/12/31 08:00:21;;;;;;;3.87;2.90;;;2.10;86.60;;;;;;5089049;28;20179;-92
2020/12/31 08:02:51;;;;;;;10.07;9.23;;;2.10;86.90;;;;;;5087895;28;20199;-91
2020/12/31 08:05:22;;;;;;;5.43;3.80;;;2.10;87.30;;;;;;5087733;28;20690;-91
2020/12/31 08:07:53;;;;;;;3.50;3.20;;;2.20;85.90;;;;;;5086342;28;20783;-91
2020/12/31 08:10:19;;;;;;;3.20;2.90;;;2.10;87.70;;;;;;5087068;28;20187;-92
2020/12/31 08:12:56;;;;;;;3.53;3.13;;;2.10;87.30;;;;;;5087335;28;20180;-91
2020/12/31 08:15:24;;;;;;;3.23;2.93;;;2.00;87.60;;;;;;5088148;28;20247;-91
2020/12/31 08:17:57;;;;;;;3.40;3.10;;;1.90;84.90;;;;;;5088563;28;20197;-92
2020/12/31 08:20:26;;;;;;;4.37;3.20;;;1.90;86.50;;;;;;5086410;28;20881;-91
2020/12/31 08:22:58;;;;;;;3.53;3.23;;;2.00;87.30;;;;;;5087661;28;20211;-91
2020/12/31 08:25:37;;;;;;;4.30;3.90;;;2.10;88.20;;;;;;5086354;28;20183;-90
2020/12/31 08:28:06;;;;;;;5.07;4.10;;;2.10;85.90;;;;;;5093786;28;20201;-91
2020/12/31 08:30:35;;;;;;;4.30;3.90;;;2.20;86.00;;;;;;5106327;28;20171;-91
2020/12/31 08:33:02;;;;;;;4.13;3.67;;;2.20;85.80;;;;;;5105898;28;20191;-91
2020/12/31 08:35:41;;;;;;;3.93;3.53;;;2.10;86.80;;;;;;5102733;28;20434;-91
2020/12/31 08:38:12;;;;;;;4.17;3.53;;;2.20;88.10;;;;;;5084952;28;20179;-91
2020/12/31 08:40:41;;;;;;;3.70;3.40;;;2.20;88.00;;;;;;5084217;28;20192;-90
2020/12/31 08:43:16;;;;;;;3.63;3.33;;;2.40;88.50;;;;;;5085985;28;20265;-90
2020/12/31 08:45:41;;;;;;;4.50;3.83;;;2.50;88.60;;;;;;5085137;28;20513;-90
2020/12/31 08:48:14;;;;;;;3.87;3.50;;;2.50;88.80;;;;;;5088659;28;20172;-92
2020/12/31 08:50:41;;;;;;;6.53;5.20;;;2.60;88.60;;;;;;5090438;28;20167;-91
2020/12/31 08:53:07;;;;;;;5.23;4.60;;;2.70;87.50;;;;;;5088257;28;20309;-91
2020/12/31 08:55:37;;;;;;;7.93;5.33;;;2.70;87.90;;;;;;5087047;28;20187;-91
2020/12/31 08:58:16;;;;;;;7.40;6.70;;;2.70;87.50;;;;;;5084199;28;20179;-90
2020/12/31 09:00:46;;;;;;;6.53;5.30;;;2.80;86.10;;;;;;5066753;28;20184;-90
2020/12/31 09:03:18;;;;;;;6.47;5.10;;;2.80;87.20;;;;;;5068866;28;20208;-90
2020/12/31 09:05:56;;;;;;;6.60;6.00;;;2.90;87.50;;;;;;5087487;28;20172;-90
2020/12/31 09:08:22;;;;;;;6.47;5.80;;;3.00;87.10;;;;;;5087641;28;20199;-90
2020/12/31 09:10:58;;;;;;;6.57;5.50;;;3.00;87.30;;;;;;5086550;28;20214;-89
2020/12/31 09:13:23;;;;;;;7.10;6.40;;;2.90;87.60;;;;;;5086487;28;20175;-91
2020/12/31 09:16:12;;;;;;;7.80;7.00;;;3.00;88.40;;;;;;5082093;28;20184;-92
2020/12/31 09:18:40;;;;;;;9.10;7.43;;;3.00;87.90;;;;;;5139626;22;20245;-91
2020/12/31 09:21:10;;;;;;;7.43;5.80;;;2.90;88.20;;;;;;5091234;28;20209;-92
2020/12/31 09:23:39;;;;;;;9.57;6.93;;;2.90;88.70;;;;;;5090705;28;20197;-91
2020/12/31 09:26:05;;;;;;;13.27;9.03;;;2.90;88.40;;;;;;5093874;28;20243;-90
2020/12/31 09:28:31;;;;;;;15.03;9.10;;;3.10;88.30;;;;;;5019532;28;20198;-91
2020/12/31 09:31:23;;;;;;;8.27;6.77;;;3.10;87.90;;;;;;5006228;28;20178;-91
2020/12/31 09:33:50;;;;;;;6.97;4.90;;;3.10;87.50;;;;;;5006202;28;20182;-90
2020/12/31 09:36:27;;;;;;;6.23;4.50;;;3.10;88.30;;;;;;5064507;28;20207;-90
2020/12/31 09:38:53;;;;;;;4.77;4.37;;;3.00;87.50;;;;;;4990349;28;20242;-90
2020/12/31 09:41:19;;;;;;;6.90;4.30;;;3.00;88.10;;;;;;5050749;28;20194;-90
2020/12/31 09:43:45;;;;;;;4.67;4.17;;;2.80;89.10;;;;;;5050958;28;20211;-90
2020/12/31 09:46:11;;;;;;;5.53;4.87;;;2.80;89.20;;;;;;5064037;28;20183;-90
2020/12/31 09:48:36;;;;;;;4.77;4.17;;;2.80;89.00;;;;;;5000980;28;20220;-92
2020/12/31 09:51:03;;;;;;;5.00;4.50;;;2.80;89.30;;;;;;5016655;28;20203;-90
2020/12/31 09:53:29;;;;;;;5.13;4.43;;;2.70;89.80;;;;;;5048974;28;20564;-91
2020/12/31 09:55:54;;;;;;;4.53;3.87;;;2.70;90.60;;;;;;5048331;28;20618;-90
2020/12/31 09:58:23;;;;;;;4.93;3.80;;;2.60;91.20;;;;;;5028466;28;20626;-89
2020/12/31 10:00:48;;;;;;;4.47;4.07;;;2.60;91.60;;;;;;5015594;28;20195;-90
2020/12/31 10:03:16;;;;;;;5.87;4.70;;;2.70;90.40;;;;;;5050342;28;20202;-89
2020/12/31 10:05:43;;;;;;;5.50;4.50;;;2.70;90.70;;;;;;5072045;28;20212;-90
2020/12/31 10:08:09;;;;;;;4.77;4.30;;;2.70;91.40;;;;;;5024883;28;20222;-90
2020/12/31 10:10:35;;;;;;;4.23;3.83;;;2.70;91.00;;;;;;5069319;28;20206;-90
2020/12/31 10:13:00;;;;;;;4.77;4.27;;;2.60;91.20;;;;;;5063348;28;20186;-90
2020/12/31 10:15:26;;;;;;;7.47;6.27;;;2.70;92.00;;;;;;5000273;28;20186;-89
2020/12/31 10:17:52;;;;;;;5.13;4.47;;;2.70;92.10;;;;;;5052243;28;20197;-88
2020/12/31 10:20:20;;;;;;;3.97;3.57;;;2.80;92.20;;;;;;5061706;28;20187;-90
2020/12/31 10:22:46;;;;;;;3.27;2.97;;;2.90;91.50;;;;;;5077232;28;20242;-89
2020/12/31 10:25:12;;;;;;;3.23;2.93;;;2.80;91.70;;;;;;5072536;28;20624;-89
2020/12/31 10:27:38;;;;;;;3.37;3.07;;;2.90;91.60;;;;;;5091509;28;20214;-90
2020/12/31 10:30:05;;;;;;;3.00;2.80;;;2.90;91.90;;;;;;5087653;28;20206;-90
2020/12/31 10:32:31;;;;;;;3.97;3.53;;;2.90;91.30;;;;;;5047426;28;20261;-88
2020/12/31 10:34:57;;;;;;;3.93;3.17;;;2.90;92.40;;;;;;5063430;28;20197;-88
2020/12/31 10:37:23;;;;;;;3.57;2.77;;;3.00;92.30;;;;;;5071515;28;20179;-89
2020/12/31 10:39:48;;;;;;;4.33;3.73;;;3.10;92.20;;;;;;5059065;28;20676;-91
2020/12/31 10:42:14;;;;;;;4.97;4.43;;;3.10;92.40;;;;;;5091926;28;20206;-90
2020/12/31 10:44:40;;;;;;;5.87;4.87;;;3.10;92.60;;;;;;5052091;28;20211;-90
2020/12/31 10:47:06;;;;;;;3.43;3.13;;;3.10;91.40;;;;;;5062659;28;20224;-90
2020/12/31 10:49:32;;;;;;;4.00;3.60;;;3.10;91.60;;;;;;5068876;28;20221;-89
2020/12/31 10:51:57;;;;;;;38.37;25.60;;;3.10;92.40;;;;;;5104849;28;20183;-89
2020/12/31 10:54:23;;;;;;;6.67;5.47;;;3.10;92.40;;;;;;5107533;28;20198;-88
2020/12/31 10:56:49;;;;;;;4.50;4.10;;;3.20;91.90;;;;;;5108973;28;20187;-90
2020/12/31 10:59:15;;;;;;;4.93;3.90;;;3.20;91.70;;;;;;5106398;28;20198;-89
2020/12/31 11:01:41;;;;;;;5.10;4.07;;;3.20;91.30;;;;;;5004001;28;20186;-90
2020/12/31 11:04:07;;;;;;;3.73;3.30;;;3.30;90.70;;;;;;5069397;28;20224;-89
2020/12/31 11:06:33;;;;;;;5.00;4.43;;;3.40;90.90;;;;;;5069041;28;20235;-88
2020/12/31 11:08:59;;;;;;;6.30;5.27;;;3.40;91.40;;;;;;5003245;28;20198;-88
2020/12/31 11:11:33;;;;;;;7.03;6.07;;;3.40;90.70;;;;;;5003984;28;20235;-90
2020/12/31 11:13:59;;;;;;;5.40;4.90;;;3.40;91.20;;;;;;5004154;28;20203;-89
2020/12/31 11:16:25;;;;;;;5.97;5.40;;;3.50;91.60;;;;;;5005050;28;20193;-89
2020/12/31 11:18:51;;;;;;;5.40;4.47;;;3.50;91.40;;;;;;5069901;28;20369;-88
2020/12/31 11:21:19;;;;;;;6.67;4.77;;;3.50;90.80;;;;;;5071425;28;20206;-89
2020/12/31 11:23:46;;;;;;;6.03;4.50;;;3.30;91.00;;;;;;5003017;28;20218;-88
2020/12/31 11:26:22;;;;;;;8.40;5.30;;;3.40;91.30;;;;;;5075615;28;20656;-88
2020/12/31 11:28:51;;;;;;;4.47;3.43;;;3.40;91.30;;;;;;5014726;28;20201;-88
2020/12/31 11:31:25;;;;;;;4.50;3.93;;;3.20;92.50;;;;;;4994687;28;20179;-89
2020/12/31 11:33:51;;;;;;;4.40;4.00;;;3.20;92.70;;;;;;5010697;28;20204;-88
2020/12/31 11:36:17;;;;;;;7.70;5.40;;;3.30;92.30;;;;;;5013248;28;20232;-88
2020/12/31 11:38:43;;;;;;;7.97;5.10;;;3.30;91.10;;;;;;5008177;28;20213;-88
2020/12/31 11:41:09;;;;;;;9.93;7.80;;;3.30;92.40;;;;;;5076335;28;20187;-87
2020/12/31 11:43:36;;;;;;;11.00;6.23;;;3.40;91.80;;;;;;5010673;28;20568;-89
2020/12/31 11:46:05;;;;;;;6.77;4.73;;;3.40;92.20;;;;;;5072966;28;20273;-90
2020/12/31 11:48:31;;;;;;;5.90;4.83;;;3.50;92.30;;;;;;4993074;28;20810;-90
2020/12/31 11:50:57;;;;;;;5.53;5.03;;;3.40;92.00;;;;;;5010894;28;20215;-90
2020/12/31 11:53:23;;;;;;;5.70;5.03;;;3.50;92.30;;;;;;5011431;28;20221;-91
2020/12/31 11:55:50;;;;;;;5.63;4.60;;;3.50;91.70;;;;;;5049301;28;20220;-91
2020/12/31 11:58:16;;;;;;;4.70;4.10;;;3.60;91.50;;;;;;5081179;28;20576;-90
2020/12/31 12:00:42;;;;;;;4.97;4.47;;;3.60;91.70;;;;;;5073401;28;20213;-89
2020/12/31 12:03:08;;;;;;;4.30;3.90;;;3.70;91.60;;;;;;5084629;28;20218;-90
2020/12/31 12:05:34;;;;;;;4.83;4.20;;;3.70;92.10;;;;;;5109321;28;20175;-89
2020/12/31 12:08:00;;;;;;;6.70;6.03;;;3.70;92.00;;;;;;5048335;28;20178;-89
2020/12/31 12:10:26;;;;;;;8.27;7.60;;;3.70;91.90;;;;;;5006184;28;20191;-88
2020/12/31 12:12:52;;;;;;;6.47;5.97;;;3.60;93.00;;;;;;5074047;28;20202;-89
2020/12/31 12:15:18;;;;;;;4.67;4.13;;;3.80;93.10;;;;;;5006829;28;20183;-88
2020/12/31 12:17:44;;;;;;;5.07;4.60;;;4.00;92.50;;;;;;5056979;28;20186;-88
2020/12/31 12:20:11;;;;;;;4.57;4.17;;;4.00;90.90;;;;;;5070804;28;20206;-88
2020/12/31 12:22:39;;;;;;;3.60;3.30;;;3.90;92.00;;;;;;5104748;28;20207;-88
2020/12/31 12:25:06;;;;;;;3.93;3.53;;;3.90;92.50;;;;;;5015737;28;20216;-89
2020/12/31 12:27:32;;;;;;;4.43;3.83;;;3.90;92.70;;;;;;5028435;28;20179;-88
2020/12/31 12:29:58;;;;;;;5.80;3.90;;;4.00;92.10;;;;;;5090372;28;20209;-87
2020/12/31 12:32:24;;;;;;;7.20;4.00;;;4.10;91.80;;;;;;5069595;28;20194;-90
2020/12/31 12:34:50;;;;;;;4.50;3.77;;;4.00;90.90;;;;;;5075343;28;20244;-90
2020/12/31 12:37:15;;;;;;;5.63;5.13;;;4.00;91.70;;;;;;5005949;28;20197;-88
2020/12/31 12:39:41;;;;;;;4.73;4.23;;;4.00;93.40;;;;;;4993942;28;20214;-89
2020/12/31 12:42:07;;;;;;;5.27;4.37;;;4.00;91.80;;;;;;5021854;28;20197;-88
2020/12/31 12:44:33;;;;;;;4.47;4.07;;;4.10;92.40;;;;;;5056755;28;20260;-90
2020/12/31 12:46:58;;;;;;;6.80;6.00;;;4.10;92.40;;;;;;5021000;28;20167;-90
2020/12/31 12:49:24;;;;;;;12.27;8.57;;;4.00;93.30;;;;;;5073565;28;20210;-91
2020/12/31 12:51:50;;;;;;;9.80;7.90;;;4.00;92.90;;;;;;5066830;28;20311;-90
2020/12/31 12:54:15;;;;;;;8.63;7.17;;;4.10;93.00;;;;;;5066360;28;20202;-89
2020/12/31 12:56:41;;;;;;;9.40;7.37;;;4.10;92.50;;;;;;5086568;28;20393;-89
2020/12/31 12:59:07;;;;;;;7.93;6.70;;;4.10;92.70;;;;;;5071079;28;20214;-91
2020/12/31 13:01:32;;;;;;;5.20;4.33;;;4.10;92.90;;;;;;5071850;28;20187;-90
2020/12/31 13:03:58;;;;;;;9.37;7.90;;;4.10;92.60;;;;;;4995961;28;20207;-90